Time;durP1;ratioP1;P1;durP2;ratioP2;P2;SDS_P1;SDS_P2;PMS_P1;PMS_P2;Temp;Humidity;BMP_temperature;BMP_pressure;BME280_temperature;BME280_humidity;BME280_pressure;Samples;Min_cycle;Max_cycle;Signal;HPM_P1;HPM_P2
2023/02/24 00:01:59;;;;;;;82.45;38.65;;;;;;;1.68;81.79;100256.91;1469986;87;21841;-79
2023/02/24 00:04:30;;;;;;;81.43;38.33;;;;;;;1.72;81.13;100251.38;1473554;87;21672;-78
2023/02/24 00:06:56;;;;;;;71.25;37.75;;;;;;;1.77;81.09;100247.19;1470599;87;21651;-78
2023/02/24 00:09:25;;;;;;;70.30;37.47;;;;;;;1.78;80.79;100244.50;1478165;87;21596;-80
2023/02/24 00:12:07;;;;;;;74.33;39.97;;;;;;;1.79;80.59;100242.25;1474162;88;21527;-78
2023/02/24 00:14:37;;;;;;;81.67;40.50;;;;;;;1.81;80.29;100234.31;1472496;88;21840;-78
2023/02/24 00:17:08;;;;;;;82.75;44.18;;;;;;;1.83;80.54;100239.45;1475454;87;21684;-79
2023/02/24 00:19:36;;;;;;;96.25;44.25;;;;;;;1.83;80.76;100231.62;1472726;88;22343;-78
2023/02/24 00:22:05;;;;;;;92.57;50.57;;;;;;;1.86;80.30;100224.90;1472347;87;21611;-78
2023/02/24 00:24:37;;;;;;;98.27;51.37;;;;;;;1.94;80.42;100231.78;1475312;88;21617;-79
2023/02/24 00:27:06;;;;;;;106.40;55.43;;;;;;;2.01;80.36;100225.22;1473751;88;22641;-79
2023/02/24 00:29:36;;;;;;;115.07;59.80;;;;;;;2.09;80.39;100225.58;1481299;87;21971;-78
2023/02/24 00:32:05;;;;;;;110.80;58.63;;;;;;;2.18;80.44;100221.53;1477545;88;22333;-78
2023/02/24 00:34:34;;;;;;;112.60;56.83;;;;;;;2.23;80.29;100215.55;1475169;87;22705;-78
2023/02/24 00:37:01;;;;;;;128.60;58.60;;;;;;;2.29;79.85;100216.93;1475270;87;21609;-78
2023/02/24 00:39:29;;;;;;;113.17;63.53;;;;;;;2.33;79.69;100214.03;1473896;88;21830;-78
2023/02/24 00:42:05;;;;;;;126.83;64.17;;;;;;;2.38;79.35;100207.18;1478340;88;21705;-78
2023/02/24 00:44:42;;;;;;;116.93;59.53;;;;;;;2.41;79.24;100207.81;1476323;88;21559;-78
2023/02/24 00:47:11;;;;;;;108.70;57.67;;;;;;;2.46;79.38;100208.35;1472326;87;21690;-78
2023/02/24 00:49:40;;;;;;;109.47;55.60;;;;;;;2.52;79.37;100211.03;1476944;87;21520;-78
2023/02/24 00:52:15;;;;;;;110.00;56.70;;;;;;;2.60;79.39;100207.45;1473208;88;22734;-78
2023/02/24 00:54:43;;;;;;;107.70;54.70;;;;;;;2.67;79.13;100208.70;1477645;87;22583;-79
2023/02/24 00:57:11;;;;;;;111.97;58.33;;;;;;;2.73;78.97;100210.54;1476658;87;21810;-79
2023/02/24 00:59:38;;;;;;;113.67;58.43;;;;;;;2.77;78.63;100209.41;1477264;88;21766;-79
2023/02/24 01:02:10;;;;;;;113.60;61.93;;;;;;;2.82;78.31;100210.78;1469810;87;21879;-79
2023/02/24 01:04:36;;;;;;;108.47;57.43;;;;;;;2.84;78.25;100209.34;1475715;88;22002;-79
2023/02/24 01:07:09;;;;;;;108.53;55.93;;;;;;;2.85;78.59;100203.17;1485689;88;21676;-79
2023/02/24 01:09:31;;;;;;;108.10;57.00;;;;;;;2.83;78.78;100197.23;1470698;88;22855;-78
2023/02/24 01:12:37;;;;;;;110.87;56.00;;;;;;;2.81;78.71;100196.48;1473883;88;22626;-79
2023/02/24 01:14:47;;;;;;;105.97;52.30;;;;;;;2.80;79.12;100196.97;1475805;87;22675;-79
2023/02/24 01:17:17;;;;;;;94.63;51.80;;;;;;;2.79;79.65;100193.13;1472247;88;22665;-79
2023/02/24 01:19:44;;;;;;;99.63;52.77;;;;;;;2.82;79.41;100192.48;1470703;87;21639;-79
2023/02/24 01:22:13;;;;;;;91.67;50.67;;;;;;;2.87;79.90;100187.75;1469453;87;21831;-79
2023/02/24 01:24:42;;;;;;;92.17;51.23;;;;;;;2.89;80.16;100184.58;1472245;87;22446;-79
2023/02/24 01:27:12;;;;;;;106.37;54.47;;;;;;;2.92;80.20;100184.36;1480977;88;21955;-79
2023/02/24 01:29:38;;;;;;;102.07;53.40;;;;;;;2.95;79.50;100185.94;1476545;87;21778;-79
2023/02/24 01:32:06;;;;;;;90.77;50.33;;;;;;;2.99;79.08;100192.61;1474999;87;21908;-79
2023/02/24 01:34:33;;;;;;;93.43;53.27;;;;;;;3.00;79.06;100186.47;1470958;87;22629;-79
2023/02/24 01:37:00;;;;;;;96.63;52.70;;;;;;;3.03;78.84;100181.50;1475037;87;21737;-79
2023/02/24 01:39:26;;;;;;;97.40;49.93;;;;;;;3.04;78.39;100181.38;1480740;87;21728;-79
2023/02/24 01:41:53;;;;;;;95.00;51.37;;;;;;;3.04;78.06;100187.91;1479166;88;21733;-79
2023/02/24 01:44:31;;;;;;;81.33;44.67;;;;;;;3.03;77.87;100178.41;1476319;88;22572;-79
2023/02/24 01:47:00;;;;;;;75.30;41.17;;;;;;;3.05;77.74;100176.53;1474620;88;21888;-79
2023/02/24 01:49:35;;;;;;;69.30;34.77;;;;;;;3.06;77.59;100180.81;1470758;87;21710;-79
2023/02/24 01:52:26;;;;;;;66.27;33.57;;;;;;;3.07;77.55;100170.70;1470493;87;22576;-80
2023/02/24 01:54:57;;;;;;;63.37;31.60;;;;;;;3.11;77.44;100176.11;1472797;87;21690;-79
2023/02/24 01:57:27;;;;;;;66.37;35.30;;;;;;;3.20;77.22;100163.34;1477050;87;22806;-79
2023/02/24 02:00:35;;;;;;;58.13;31.35;;;;;;;3.27;76.94;100158.03;1465679;88;21900;-79
2023/02/24 02:02:25;;;;;;;52.13;28.75;;;;;;;3.32;76.69;100157.24;1478340;88;22249;-79
2023/02/24 02:04:59;;;;;;;50.03;26.90;;;;;;;3.37;76.30;100155.98;1470001;88;21470;-79
2023/02/24 02:07:28;;;;;;;52.90;26.43;;;;;;;3.41;76.08;100152.66;1482264;87;23379;-80
2023/02/24 02:10:02;;;;;;;47.60;25.10;;;;;;;3.45;75.68;100151.97;1471312;88;21697;-79
2023/02/24 02:12:31;;;;;;;50.37;25.33;;;;;;;3.47;75.46;100142.24;1483469;88;22577;-79
2023/02/24 02:14:58;;;;;;;47.17;23.23;;;;;;;3.50;75.27;100144.64;1476019;87;22232;-80
2023/02/24 02:17:39;;;;;;;47.03;23.47;;;;;;;3.60;75.33;100138.64;1484496;88;21905;-80
2023/02/24 02:20:39;;;;;;;50.23;24.63;;;;;;;3.60;75.33;100138.64;1478426;87;21784;-80
2023/02/24 02:23:52;;;;;;;39.77;19.57;;;;;;;3.68;75.57;100142.00;1478395;87;21841;-80
2023/02/24 02:26:48;;;;;;;35.63;18.80;;;;;;;3.87;74.16;100148.06;1484714;88;21687;-80
2023/02/24 02:29:55;;;;;;;48.97;19.60;;;;;;;3.87;74.16;100148.06;1489888;88;21805;-79
2023/02/24 02:32:50;;;;;;;34.37;17.87;;;;;;;3.95;74.17;100146.20;1477316;87;22729;-80
2023/02/24 02:35:23;;;;;;;39.90;18.07;;;;;;;4.01;73.98;100149.20;1488193;88;21723;-80
2023/02/24 02:38:11;;;;;;;37.57;18.40;;;;;;;4.02;73.54;100144.31;1482609;87;22053;-80
2023/02/24 02:41:10;;;;;;;36.07;16.77;;;;;;;4.02;73.54;100144.31;1490362;88;21950;-80
2023/02/24 02:43:51;;;;;;;32.50;17.10;;;;;;;4.07;73.38;100151.84;1483151;87;22713;-80
2023/02/24 02:46:33;;;;;;;;;;;;;;;4.06;73.21;100151.02;1483111;87;22817;-81
2023/02/24 02:49:08;;;;;;;40.43;17.13;;;;;;;4.08;73.35;100145.65;1479531;87;20302;-81
2023/02/24 02:51:42;;;;;;;32.43;18.03;;;;;;;4.09;73.17;100146.51;1486497;88;22694;-81
2023/02/24 02:54:32;;;;;;;27.37;15.27;;;;;;;4.03;72.84;100126.84;1487385;88;21868;-82
2023/02/24 02:57:09;;;;;;;31.00;15.50;;;;;;;4.12;72.96;100141.05;1482841;88;21888;-81
2023/02/24 02:59:39;;;;;;;30.20;14.23;;;;;;;4.15;73.57;100142.13;1486458;87;22135;-82
2023/02/24 03:02:13;;;;;;;27.57;15.37;;;;;;;4.25;73.05;100140.00;1461705;88;22038;-82
2023/02/24 03:04:43;;;;;;;25.43;14.47;;;;;;;4.25;73.05;100140.00;1486101;87;22822;-82
2023/02/24 03:07:11;;;;;;;40.67;17.50;;;;;;;4.26;73.09;100134.30;1485353;87;23356;-81
2023/02/24 03:09:42;;;;;;;35.63;16.80;;;;;;;4.28;73.11;100140.25;1485070;88;21566;-82
2023/02/24 03:12:14;;;;;;;29.80;16.87;;;;;;;4.28;73.11;100140.25;1483263;87;22204;-81
2023/02/24 03:14:44;;;;;;;;;;;;;;;4.27;72.73;100126.80;1487054;87;22013;-82
2023/02/24 03:17:16;;;;;;;32.85;18.35;;;;;;;4.30;73.47;100126.56;1493422;87;20817;-82
2023/02/24 03:19:45;;;;;;;45.20;23.27;;;;;;;4.26;72.92;100115.48;1464586;88;21626;-82
2023/02/24 03:22:17;;;;;;;43.03;22.50;;;;;;;4.26;72.92;100115.48;1487980;88;22124;-82
2023/02/24 03:24:44;;;;;;;44.23;19.40;;;;;;;4.31;73.18;100129.53;1483128;87;23551;-82
2023/02/24 03:27:24;;;;;;;29.73;14.97;;;;;;;4.27;73.00;100128.11;1484269;88;22157;-81
2023/02/24 03:29:57;;;;;;;32.65;15.95;;;;;;;4.25;73.32;100124.75;1485867;87;22224;-82
2023/02/24 03:32:42;;;;;;;28.93;15.10;;;;;;;4.28;73.48;100137.62;1489200;88;21577;-82
2023/02/24 03:35:15;;;;;;;29.80;15.47;;;;;;;4.28;73.16;100131.08;1479665;88;22215;-81
2023/02/24 03:37:43;;;;;;;28.50;14.50;;;;;;;4.28;73.16;100131.08;1462884;88;22144;-81
2023/02/24 03:40:14;;;;;;;36.77;15.43;;;;;;;4.23;73.30;100118.34;1468838;88;22170;-81
2023/02/24 03:42:45;;;;;;;27.63;15.77;;;;;;;4.23;73.30;100118.34;1483997;87;22184;-80
2023/02/24 03:45:12;;;;;;;28.90;15.93;;;;;;;4.28;73.22;100117.98;1476903;87;22026;-81
2023/02/24 03:47:40;;;;;;;38.10;17.53;;;;;;;4.27;73.35;100111.08;1481109;87;21396;-81
2023/02/24 03:50:19;;;;;;;31.07;16.83;;;;;;;4.23;73.16;100095.21;1473535;88;21886;-81
2023/02/24 03:53:21;;;;;;;27.50;14.63;;;;;;;4.26;73.14;100091.08;1486887;87;22252;-80
2023/02/24 03:56:12;;;;;;;34.45;16.60;;;;;;;4.26;73.14;100091.08;1477377;87;21906;-81
2023/02/24 03:59:00;;;;;;;32.33;15.13;;;;;;;4.26;73.39;100095.84;1476581;87;21597;-81
2023/02/24 04:01:56;;;;;;;29.70;16.17;;;;;;;4.26;73.39;100095.84;1488089;87;22108;-81
2023/02/24 04:04:47;;;;;;;28.87;13.60;;;;;;;4.28;73.48;100079.98;1481503;87;21994;-82
2023/02/24 04:07:51;;;;;;;22.40;13.00;;;;;;;4.28;73.48;100079.98;1489782;87;22406;-81
2023/02/24 04:10:20;;;;;;;26.68;13.78;;;;;;;4.37;73.40;100087.63;1469396;87;23011;-81
2023/02/24 04:12:56;;;;;;;25.50;12.67;;;;;;;4.37;73.08;100074.05;1487745;87;21500;-79
2023/02/24 04:15:42;;;;;;;32.50;14.83;;;;;;;4.37;73.08;100074.05;1486906;88;21913;-79
2023/02/24 04:18:16;;;;;;;39.40;16.53;;;;;;;4.34;73.14;100062.49;1481680;87;22217;-80
2023/02/24 04:20:49;;;;;;;22.83;13.40;;;;;;;4.35;73.23;100075.97;1483776;88;22085;-79
2023/02/24 04:23:21;;;;;;;33.85;15.20;;;;;;;4.35;73.23;100075.97;1470655;87;22576;-79
2023/02/24 04:25:52;;;;;;;28.70;13.53;;;;;;;4.34;73.21;100072.97;1478680;88;21522;-80
2023/02/24 04:28:22;;;;;;;29.12;14.65;;;;;;;4.34;73.14;100072.97;1473671;88;22826;-79
2023/02/24 04:30:52;;;;;;;29.13;15.27;;;;;;;4.36;73.37;100069.77;1452313;88;22053;-79
2023/02/24 04:33:19;;;;;;;20.15;10.95;;;;;;;4.36;73.37;100069.77;1476279;87;22003;-80
2023/02/24 04:35:52;;;;;;;26.47;13.63;;;;;;;4.42;73.67;100056.68;1474414;88;21619;-80
2023/02/24 04:38:19;;;;;;;28.33;13.67;;;;;;;4.46;73.70;100053.72;1477547;88;22163;-79
2023/02/24 04:40:45;;;;;;;25.50;13.07;;;;;;;4.48;73.76;100051.80;1469855;87;22171;-79
2023/02/24 04:43:11;;;;;;;32.77;14.37;;;;;;;4.49;73.37;100043.00;1471712;88;22057;-80
2023/02/24 04:45:40;;;;;;;28.73;13.67;;;;;;;4.54;73.74;100037.38;1474452;88;21922;-79
2023/02/24 04:48:14;;;;;;;28.13;14.30;;;;;;;4.55;73.88;100042.17;1472629;88;22767;-79
2023/02/24 04:50:43;;;;;;;30.33;16.03;;;;;;;4.53;73.81;100037.86;1467716;88;22305;-79
2023/02/24 04:53:14;;;;;;;52.77;27.03;;;;;;;4.56;73.79;100042.52;1475371;87;22656;-79
2023/02/24 04:55:50;;;;;;;75.30;42.03;;;;;;;4.53;73.80;100048.83;1478440;87;22405;-80
2023/02/24 04:58:19;;;;;;;51.50;30.97;;;;;;;4.49;74.08;100044.79;1478397;88;22299;-79
2023/02/24 05:00:48;;;;;;;;;;;;;;;4.41;74.21;100037.98;1482827;87;22148;-79
2023/02/24 05:03:16;;;;;;;28.73;16.00;;;;;;;4.46;74.77;100048.48;1468172;88;20400;-79
2023/02/24 05:05:51;;;;;;;43.67;19.33;;;;;;;4.44;75.31;100035.96;1476939;88;22153;-79
2023/02/24 05:08:18;;;;;;;41.33;24.23;;;;;;;4.44;75.08;100035.96;1467235;87;22302;-78
2023/02/24 05:10:46;;;;;;;46.50;27.47;;;;;;;4.46;75.09;100030.23;1474058;88;22218;-79
2023/02/24 05:13:18;;;;;;;41.47;19.47;;;;;;;4.50;74.79;100030.23;1478531;87;22341;-79
2023/02/24 05:15:46;;;;;;;30.77;16.33;;;;;;;4.46;75.25;100008.31;1474500;88;22188;-81
2023/02/24 05:18:17;;;;;;;34.37;17.13;;;;;;;4.46;75.25;100008.31;1480233;87;23167;-81
2023/02/24 05:23:43;;;;;;;66.20;34.93;;;;;;;4.49;75.22;100014.17;1465096;88;23027;-81
2023/02/24 05:26:10;;;;;;;95.47;48.47;;;;;;;4.48;75.36;100020.34;1479341;87;22191;-81
2023/02/24 05:28:39;;;;;;;119.07;56.83;;;;;;;4.41;75.95;100010.47;1464933;88;22116;-81
2023/02/24 05:31:09;;;;;;;57.90;27.77;;;;;;;4.44;75.91;100008.45;1472244;87;22091;-81
2023/02/24 05:33:37;;;;;;;40.77;21.10;;;;;;;4.44;75.91;100008.45;1476085;87;22200;-81
2023/02/24 05:36:08;;;;;;;32.13;19.47;;;;;;;4.49;75.75;100008.93;1478300;87;22306;-82
2023/02/24 05:38:36;;;;;;;40.05;20.75;;;;;;;4.53;75.83;100012.97;1460605;88;23132;-80
2023/02/24 05:41:17;;;;;;;51.17;28.07;;;;;;;4.52;76.01;100014.41;1481818;88;21655;-80
2023/02/24 05:43:51;;;;;;;92.05;49.05;;;;;;;4.44;76.17;100007.14;1478659;87;22271;-86
2023/02/24 05:46:18;;;;;;;118.17;60.33;;;;;;;4.45;75.99;100014.52;1474227;87;22374;-87
2023/02/24 05:48:45;;;;;;;68.70;37.43;;;;;;;4.43;76.15;100011.17;1470844;87;23027;-85
2023/02/24 05:51:12;;;;;;;61.17;31.63;;;;;;;4.39;76.81;100013.20;1475451;87;22121;-86
2023/02/24 05:53:41;;;;;;;73.77;39.57;;;;;;;4.36;76.87;100007.37;1469962;88;22170;-88
2023/02/24 05:56:09;;;;;;;79.43;44.27;;;;;;;4.41;77.05;100010.47;1477276;88;23193;-88
2023/02/24 05:58:43;;;;;;;60.80;29.40;;;;;;;4.45;76.89;100014.52;1475811;88;22072;-87
2023/02/24 06:01:16;;;;;;;58.30;30.97;;;;;;;4.46;77.18;100013.09;1476936;87;22341;-87
2023/02/24 06:03:46;;;;;;;85.50;47.20;;;;;;;4.47;76.99;100011.31;1471914;87;22967;-86
2023/02/24 06:06:16;;;;;;;63.98;34.83;;;;;;;4.47;77.03;100016.06;1470344;87;22201;-87
2023/02/24 06:08:49;;;;;;;85.17;45.10;;;;;;;4.47;78.76;100010.83;1478138;87;21464;-86
2023/02/24 06:11:19;;;;;;;67.77;33.33;;;;;;;4.48;77.78;100005.93;1479808;88;21953;-87
2023/02/24 06:13:48;;;;;;;106.87;52.23;;;;;;;4.44;78.29;100004.52;1478825;87;22275;-88
2023/02/24 06:16:17;;;;;;;75.90;40.10;;;;;;;4.48;77.97;100009.86;1467150;88;22103;-88
2023/02/24 06:18:50;;;;;;;70.40;36.37;;;;;;;4.47;78.51;100000.83;1477435;88;22130;-87
2023/02/24 06:21:18;;;;;;;63.40;34.23;;;;;;;4.57;78.68;100010.11;1482318;87;22291;-87
2023/02/24 06:23:44;;;;;;;60.53;32.13;;;;;;;4.65;78.58;100007.24;1482798;87;22240;-87
2023/02/24 06:26:18;;;;;;;59.17;34.33;;;;;;;4.65;78.58;100007.24;1482896;88;22955;-86
2023/02/24 06:28:42;;;;;;;48.98;27.37;;;;;;;4.67;78.29;100004.03;1486989;88;22155;-87
2023/02/24 06:31:09;;;;;;;44.07;24.70;;;;;;;4.69;78.66;100006.52;1483656;87;21552;-86
2023/02/24 06:33:39;;;;;;;57.03;27.17;;;;;;;4.69;78.69;100011.31;1491179;88;22092;-86
2023/02/24 06:36:07;;;;;;;55.20;26.80;;;;;;;4.70;78.83;100016.08;1491819;87;22241;-88
2023/02/24 06:38:36;;;;;;;47.10;24.37;;;;;;;4.74;79.15;100013.55;1478992;88;22272;-88
2023/02/24 06:41:09;;;;;;;48.53;24.40;;;;;;;4.79;79.26;100010.58;1476210;87;22183;-88
2023/02/24 06:43:32;;;;;;;39.97;23.27;;;;;;;4.82;79.87;100001.99;1484744;87;23672;-89
2023/02/24 06:46:01;;;;;;;45.53;24.67;;;;;;;4.88;79.65;100006.75;1489554;88;23172;-89
2023/02/24 06:48:27;;;;;;;48.97;24.90;;;;;;;4.90;79.71;100002.22;1477237;88;22981;-88
2023/02/24 06:50:55;;;;;;;49.37;29.90;;;;;;;4.89;80.82;100003.19;1488004;88;22324;-88
2023/02/24 06:53:22;;;;;;;55.53;28.43;;;;;;;4.89;80.19;99995.33;1476365;88;22177;-88
2023/02/24 06:55:49;;;;;;;60.43;30.83;;;;;;;4.87;80.46;99989.84;1485889;87;23286;-88
2023/02/24 06:58:19;;;;;;;55.70;29.53;;;;;;;4.87;80.84;99988.05;1482860;88;23212;-87
2023/02/24 07:00:58;;;;;;;48.17;29.23;;;;;;;4.85;81.71;99988.64;1470288;88;22207;-86
2023/02/24 07:04:01;;;;;;;49.60;27.43;;;;;;;4.88;81.96;99983.15;1484448;87;22335;-88
2023/02/24 07:08:47;;;;;;;47.50;26.53;;;;;;;4.95;82.64;99988.27;1487529;88;22195;-87
2023/02/24 07:11:16;;;;;;;48.10;28.10;;;;;;;4.96;83.92;99983.38;1474819;88;22373;-87
2023/02/24 07:13:42;;;;;;;62.87;36.50;;;;;;;4.93;83.61;99982.31;1470399;88;23231;-87
2023/02/24 07:16:10;;;;;;;54.53;30.43;;;;;;;4.93;83.07;99983.63;1482140;88;22161;-86
2023/02/24 07:18:41;;;;;;;49.27;28.50;;;;;;;4.91;84.07;99976.34;1488296;87;22162;-87
2023/02/24 07:21:15;;;;;;;45.23;26.60;;;;;;;4.90;84.00;99981.25;1481551;88;23137;-88
2023/02/24 07:23:48;;;;;;;45.17;29.13;;;;;;;4.89;85.30;99982.21;1466740;88;22174;-87
2023/02/24 07:26:17;;;;;;;42.10;25.83;;;;;;;4.93;84.69;99978.37;1475580;87;22364;-87
2023/02/24 07:28:46;;;;;;;40.23;22.45;;;;;;;4.94;85.26;99980.52;1473375;88;22312;-86
2023/02/24 07:31:17;;;;;;;43.07;23.43;;;;;;;4.96;85.12;99973.37;1470834;88;21472;-84
2023/02/24 07:33:46;;;;;;;36.03;22.17;;;;;;;4.89;87.06;99974.34;1474076;88;22173;-87
2023/02/24 07:36:17;;;;;;;38.90;23.37;;;;;;;4.89;85.76;99963.00;1475731;87;21478;-83
2023/02/24 07:38:44;;;;;;;50.20;23.38;;;;;;;4.90;86.34;99965.52;1475135;88;23165;-88
2023/02/24 07:41:14;;;;;;;43.73;25.23;;;;;;;4.92;87.31;99962.75;1473090;87;21508;-87
2023/02/24 07:43:42;;;;;;;39.50;23.47;;;;;;;4.93;87.38;99953.95;1472602;88;22298;-86
2023/02/24 07:46:13;;;;;;;41.40;24.77;;;;;;;4.91;87.83;99943.56;1470111;88;22225;-88
2023/02/24 07:48:40;;;;;;;41.85;23.65;;;;;;;4.91;87.83;99943.56;1476069;88;21786;-86
2023/02/24 07:51:15;;;;;;;39.70;22.03;;;;;;;4.96;87.22;99949.28;1472569;88;21471;-86
2023/02/24 07:53:43;;;;;;;40.03;22.10;;;;;;;4.98;86.70;99943.45;1468213;88;23186;-87
2023/02/24 07:56:12;;;;;;;37.93;22.27;;;;;;;4.99;87.20;99933.78;1469073;87;22259;-85
2023/02/24 07:58:41;;;;;;;49.60;22.70;;;;;;;4.97;87.46;99928.64;1476273;87;22136;-88
2023/02/24 08:01:37;;;;;;;37.43;21.30;;;;;;;4.97;88.17;99930.44;1474234;87;23101;-87
2023/02/24 08:03:41;;;;;;;39.40;24.70;;;;;;;4.98;87.51;99923.77;1465232;88;23172;-86
2023/02/24 08:06:25;;;;;;;43.30;24.37;;;;;;;5.00;87.55;99924.12;1470028;88;22372;-88
2023/02/24 08:08:56;;;;;;;42.40;26.27;;;;;;;4.96;88.22;99916.50;1476816;87;23121;-86
2023/02/24 08:11:13;;;;;;;41.93;24.53;;;;;;;4.95;88.01;99912.22;1469738;88;22175;-87
2023/02/24 08:13:42;;;;;;;36.63;23.00;;;;;;;4.93;88.48;99911.50;1462591;88;22395;-88
2023/02/24 08:16:09;;;;;;;39.17;24.33;;;;;;;4.93;88.48;99911.50;1463515;88;21670;-87
2023/02/24 08:18:39;;;;;;;39.97;21.30;;;;;;;4.96;89.39;99911.73;1439507;88;22254;-85
2023/02/24 08:21:04;;;;;;;53.87;26.97;;;;;;;5.03;88.93;99912.06;1471552;88;22299;-86
2023/02/24 08:23:33;;;;;;;55.87;27.90;;;;;;;5.04;90.77;99896.70;1483148;88;22230;-86
2023/02/24 08:26:02;;;;;;;92.63;44.03;;;;;;;5.15;90.19;99905.81;1482308;87;21433;-87
2023/02/24 08:28:28;;;;;;;54.87;30.17;;;;;;;5.15;90.19;99905.81;1480384;87;21456;-87
2023/02/24 08:30:55;;;;;;;54.67;31.57;;;;;;;5.17;90.73;99904.73;1487784;88;22132;-86
2023/02/24 08:33:22;;;;;;;50.70;29.17;;;;;;;5.20;90.60;99891.36;1453015;88;22162;-87
2023/02/24 08:36:00;;;;;;;41.43;26.23;;;;;;;5.20;90.60;99891.36;1484545;88;22415;-87
2023/02/24 08:38:22;;;;;;;45.33;27.43;;;;;;;5.31;91.27;99881.30;1484021;88;22387;-86
2023/02/24 08:40:53;;;;;;;41.70;25.23;;;;;;;5.40;91.12;99880.53;1487357;88;22477;-88
2023/02/24 08:43:35;;;;;;;37.75;24.37;;;;;;;5.40;91.12;99880.53;1484025;87;21448;-85
2023/02/24 08:46:19;;;;;;;43.73;23.93;;;;;;;5.51;92.57;99882.75;1486825;87;21403;-86
2023/02/24 08:48:59;;;;;;;37.60;21.67;;;;;;;5.58;92.04;99869.45;1485206;87;21389;-87
2023/02/24 08:51:36;;;;;;;40.37;24.23;;;;;;;5.66;92.20;99873.58;1479602;88;22565;-86
2023/02/24 08:54:09;;;;;;;33.33;21.63;;;;;;;5.69;92.85;99871.17;1470877;88;21460;-85
2023/02/24 08:56:42;;;;;;;35.43;23.60;;;;;;;5.72;93.80;99870.42;1484798;88;21419;-85
2023/02/24 08:59:06;;;;;;;34.40;22.60;;;;;;;5.78;93.64;99866.00;1487904;88;22460;-88
2023/02/24 09:01:39;;;;;;;32.00;22.27;;;;;;;5.81;94.10;99859.16;1489565;88;21647;-87
2023/02/24 09:04:17;;;;;;;36.80;23.30;;;;;;;5.86;94.70;99861.38;1475394;88;21500;-86
2023/02/24 09:06:48;;;;;;;40.43;23.97;;;;;;;5.89;94.91;99869.82;1486020;87;21543;-85
2023/02/24 09:09:21;;;;;;;46.30;25.70;;;;;;;5.95;94.92;99865.88;1484408;87;21596;-86
2023/02/24 09:11:55;;;;;;;40.93;25.00;;;;;;;5.96;95.33;99861.48;1482901;88;21662;-87
2023/02/24 09:14:35;;;;;;;38.77;23.70;;;;;;;5.96;95.28;99858.85;1492645;87;21633;-86
2023/02/24 09:17:01;;;;;;;38.23;22.87;;;;;;;5.98;95.39;99856.90;1482864;87;21470;-86
2023/02/24 09:22:30;;;;;;;38.17;23.73;;;;;;;6.10;95.35;99845.36;1480602;87;21418;-86
2023/02/24 09:25:17;;;;;;;38.07;24.03;;;;;;;6.15;95.10;99843.14;1480387;88;22396;-87
2023/02/24 09:28:16;;;;;;;45.17;28.00;;;;;;;6.20;95.29;99842.75;1490969;87;21418;-86
2023/02/24 09:30:49;;;;;;;52.77;30.47;;;;;;;6.26;95.10;99830.38;1486975;88;22253;-86
2023/02/24 09:33:40;;;;;;;46.57;28.53;;;;;;;6.35;95.50;99827.43;1481835;87;22507;-86
2023/02/24 09:36:19;;;;;;;53.42;32.23;;;;;;;6.39;95.01;99827.04;1482652;87;21596;-87
2023/02/24 09:42:23;;;;;;;53.07;31.33;;;;;;;6.54;94.58;99826.98;1481018;87;21698;-87
2023/02/24 09:44:36;;;;;;;51.30;31.57;;;;;;;6.58;94.53;99828.84;1482532;88;22587;-86
2023/02/24 09:47:55;;;;;;;49.43;33.10;;;;;;;6.59;94.57;99820.47;1479617;87;21456;-86
2023/02/24 09:50:44;;;;;;;47.70;30.40;;;;;;;6.55;94.97;99824.69;1467412;88;21514;-87
2023/02/24 09:53:12;;;;;;;50.83;28.57;;;;;;;6.54;95.03;99814.33;1483078;88;21662;-87
2023/02/24 09:55:44;;;;;;;50.37;29.53;;;;;;;6.47;95.48;99828.97;1485251;87;21484;-87
2023/02/24 09:58:25;;;;;;;45.80;28.77;;;;;;;6.57;95.21;99820.63;1487310;87;21440;-86
2023/02/24 10:01:21;;;;;;;45.83;29.93;;;;;;;6.59;95.10;99820.02;1484083;87;21618;-87
2023/02/24 10:04:11;;;;;;;59.93;36.30;;;;;;;6.64;94.61;99813.84;1484682;88;21551;-86
2023/02/24 10:06:45;;;;;;;52.67;33.53;;;;;;;6.61;95.55;99804.91;1410758;91;22391;-86
2023/02/24 10:09:25;;;;;;;56.33;34.77;;;;;;;6.59;94.96;99804.23;1431223;91;21824;-86
2023/02/24 10:12:04;;;;;;;56.27;34.97;;;;;;;6.61;94.77;99797.02;1433706;91;21489;-86
2023/02/24 10:15:17;;;;;;;54.83;36.63;;;;;;;6.60;95.67;99797.17;1431951;91;21621;-88
2023/02/24 10:17:38;;;;;;;52.60;34.03;;;;;;;6.62;94.79;99798.70;1434086;91;21702;-86
2023/02/24 10:20:12;;;;;;;46.93;34.13;;;;;;;6.56;95.27;99803.20;1432403;91;21489;-85
2023/02/24 10:22:52;;;;;;;57.23;37.17;;;;;;;6.55;95.50;99801.03;1430527;91;21668;-87
2023/02/24 10:25:55;;;;;;;50.03;35.70;;;;;;;6.50;95.31;99796.69;1427954;91;21526;-87
2023/02/24 10:28:34;;;;;;;70.40;42.58;;;;;;;6.43;96.15;99790.79;1428392;91;21609;-87
2023/02/24 10:31:23;;;;;;;61.53;40.70;;;;;;;6.37;96.05;99768.51;1429018;91;22421;-87
2023/02/24 10:34:04;;;;;;;58.35;40.12;;;;;;;6.39;96.38;99746.87;1432730;91;21490;-87
2023/02/24 10:36:36;;;;;;;57.40;40.03;;;;;;;6.49;96.35;99745.55;1402746;93;21716;-86
2023/02/24 10:39:24;;;;;;;52.97;38.07;;;;;;;6.57;96.54;99742.23;1423971;91;21454;-87
2023/02/24 10:42:00;;;;;;;49.77;34.33;;;;;;;6.65;96.03;99731.86;1405864;93;21728;-88
2023/02/24 10:44:35;;;;;;;49.93;35.43;;;;;;;6.69;95.66;99736.69;1476566;88;23035;-85
2023/02/24 10:47:11;;;;;;;57.57;37.73;;;;;;;6.69;95.52;99743.26;1479216;87;21619;-88
2023/02/24 10:49:55;;;;;;;55.67;40.83;;;;;;;6.68;95.63;99736.35;1477444;87;21556;-89
2023/02/24 10:52:35;;;;;;;57.73;39.70;;;;;;;6.73;94.99;99722.77;1476290;87;21552;-83
2023/02/24 10:55:04;;;;;;;54.53;38.33;;;;;;;6.73;95.61;99724.08;1482733;88;21492;-83
2023/02/24 10:57:35;;;;;;;58.43;40.50;;;;;;;6.72;95.30;99722.43;1482706;88;21455;-83
2023/02/24 11:03:07;;;;;;;60.20;40.93;;;;;;;6.71;95.61;99711.58;1482057;88;22587;-83
2023/02/24 11:05:37;;;;;;;53.90;40.17;;;;;;;6.68;95.50;99709.23;1483641;88;21698;-83
2023/02/24 11:08:43;;;;;;;54.73;39.83;;;;;;;6.67;95.68;99700.48;1477427;87;21522;-82
2023/02/24 11:11:28;;;;;;;55.15;39.65;;;;;;;6.67;95.82;99699.17;1464085;88;22901;-83
2023/02/24 11:19:46;;;;;;;57.83;37.43;;;;;;;6.71;95.75;99679.53;1486275;87;21322;-84
2023/02/24 11:22:17;;;;;;;60.67;42.70;;;;;;;6.71;96.39;99667.70;1470638;88;22275;-83
2023/02/24 11:24:45;;;;;;;61.47;41.67;;;;;;;6.80;96.19;99657.30;1484368;87;21507;-84
2023/02/24 11:27:16;;;;;;;62.50;45.57;;;;;;;6.86;95.74;99656.23;1487100;87;21367;-86
2023/02/24 11:30:05;;;;;;;68.62;47.58;;;;;;;6.82;96.10;99655.34;1487982;88;21323;-84
2023/02/24 11:32:56;;;;;;;59.77;44.50;;;;;;;6.92;95.38;99652.20;1484987;87;21470;-85
2023/02/24 11:35:28;;;;;;;64.03;44.53;;;;;;;6.94;95.58;99654.22;1482975;87;21795;-85
2023/02/24 11:38:32;;;;;;;62.07;41.77;;;;;;;6.88;95.93;99653.48;1462453;88;21693;-86
2023/02/24 11:41:15;;;;;;;59.87;43.70;;;;;;;6.91;95.45;99647.93;1485339;87;21522;-86
2023/02/24 11:43:45;;;;;;;61.87;41.13;;;;;;;6.95;95.79;99646.66;1477968;87;21500;-86
2023/02/24 11:46:19;;;;;;;61.93;45.80;;;;;;;6.96;95.96;99640.41;1408955;88;21389;-86
2023/02/24 11:48:55;;;;;;;66.70;47.93;;;;;;;6.93;95.58;99638.07;1403731;88;21467;-85
2023/02/24 11:51:27;;;;;;;62.13;45.97;;;;;;;6.91;95.29;99642.67;1409157;88;21278;-85
2023/02/24 11:54:07;;;;;;;60.67;42.40;;;;;;;6.91;95.38;99635.60;1570570;87;21176;-86
2023/02/24 11:56:42;;;;;;;59.67;44.73;;;;;;;6.85;96.31;99630.92;1410718;88;21308;-84
2023/02/24 11:59:33;;;;;;;55.90;40.87;;;;;;;6.87;96.39;99630.76;1569671;87;21460;-85
2023/02/24 12:02:20;;;;;;;53.93;41.20;;;;;;;6.86;96.54;99625.16;1402908;87;21538;-84
2023/02/24 12:04:58;;;;;;;50.70;38.20;;;;;;;6.86;96.72;99623.36;1563673;87;21309;-84
2023/02/24 12:07:38;;;;;;;59.57;44.40;;;;;;;6.85;97.43;99614.28;1556180;88;21294;-85
2023/02/24 12:10:15;;;;;;;66.90;49.63;;;;;;;6.87;97.19;99612.34;1408739;87;22299;-86
2023/02/24 12:13:01;;;;;;;69.33;50.13;;;;;;;6.88;96.97;99604.33;1402434;87;22181;-85
2023/02/24 12:15:36;;;;;;;57.23;40.77;;;;;;;6.90;96.95;99599.73;1410652;88;21279;-82